Time;durP1;ratioP1;P1;durP2;ratioP2;P2;SDS_P1;SDS_P2;PMS_P1;PMS_P2;Temp;Humidity;BMP_temperature;BMP_pressure;BME280_temperature;BME280_humidity;BME280_pressure;Samples;Min_cycle;Max_cycle;Signal;HPM_P1;HPM_P2
2023/09/24 00:01:49;;;;;;;3.80;1.58;;;487.00;2380.80;;;;;;5091226;28;20035;-62
2023/09/24 00:04:17;;;;;;;2.97;1.58;;;486.90;2380.80;;;;;;5091264;28;20028;-62
2023/09/24 00:06:44;;;;;;;2.20;1.20;;;486.90;2380.80;;;;;;5090343;28;20034;-60
2023/09/24 00:09:09;;;;;;;2.55;1.50;;;487.10;2380.80;;;;;;5091195;28;20016;-67
2023/09/24 00:11:36;;;;;;;5.32;1.45;;;487.00;2380.80;;;;;;5090815;28;20016;-67
2023/09/24 00:14:02;;;;;;;2.60;1.35;;;487.10;2380.80;;;;;;5091242;28;20110;-60
2023/09/24 00:16:28;;;;;;;2.08;1.38;;;487.10;2380.80;;;;;;5090530;28;20494;-65
2023/09/24 00:18:54;;;;;;;1.92;1.00;;;487.10;2380.80;;;;;;5090302;28;20478;-67
2023/09/24 00:21:19;;;;;;;2.03;0.98;;;487.10;2380.80;;;;;;5072526;28;20417;-60
2023/09/24 00:23:45;;;;;;;2.05;0.88;;;486.80;2380.80;;;;;;5072297;28;20031;-67
2023/09/24 00:26:11;;;;;;;2.40;1.42;;;487.00;2380.80;;;;;;5069687;28;20456;-64
2023/09/24 00:28:37;;;;;;;2.90;1.55;;;487.10;2380.80;;;;;;5070162;28;20081;-60
2023/09/24 00:31:03;;;;;;;2.30;1.50;;;487.00;2380.80;;;;;;5080538;28;20021;-66
2023/09/24 00:33:29;;;;;;;2.63;1.40;;;487.10;2380.80;;;;;;5085571;28;20032;-63
2023/09/24 00:35:59;;;;;;;4.68;1.50;;;487.10;2380.80;;;;;;5080685;28;20054;-60
2023/09/24 00:38:24;;;;;;;2.22;1.33;;;487.10;2380.80;;;;;;5086153;28;20042;-65
2023/09/24 00:40:50;;;;;;;2.42;1.30;;;487.20;2380.80;;;;;;5081977;28;20017;-66
2023/09/24 00:43:30;;;;;;;2.75;1.23;;;487.10;2380.80;;;;;;5086583;28;20355;-62
2023/09/24 00:45:57;;;;;;;2.28;1.17;;;487.00;2380.80;;;;;;5080651;28;20036;-60
2023/09/24 00:48:28;;;;;;;2.10;1.50;;;486.90;2380.80;;;;;;5079380;28;20038;-65
2023/09/24 00:51:13;;;;;;;4.18;1.42;;;487.00;2380.80;;;;;;5084005;28;20070;-62
2023/09/24 00:53:40;;;;;;;2.92;1.55;;;487.00;2380.80;;;;;;5086436;28;20467;-65
2023/09/24 00:56:06;;;;;;;3.65;1.48;;;486.90;2380.80;;;;;;5086448;28;20036;-59
2023/09/24 00:58:34;;;;;;;4.53;1.95;;;487.00;2380.80;;;;;;5087929;28;20032;-67
2023/09/24 01:01:00;;;;;;;3.45;1.83;;;487.00;2380.80;;;;;;5070397;28;20086;-66
2023/09/24 01:03:27;;;;;;;2.92;1.40;;;486.80;2380.80;;;;;;5073732;28;20483;-60
2023/09/24 01:05:54;;;;;;;3.10;1.63;;;486.90;2380.80;;;;;;5072461;28;20028;-65
2023/09/24 01:08:21;;;;;;;2.60;1.42;;;486.90;2380.80;;;;;;5083436;28;20089;-66
2023/09/24 01:10:47;;;;;;;3.20;1.85;;;486.80;2380.80;;;;;;5087261;28;20470;-60
2023/09/24 01:13:15;;;;;;;2.97;1.50;;;486.90;2380.80;;;;;;5089841;28;20115;-65
2023/09/24 01:15:44;;;;;;;1.92;1.15;;;486.90;2380.80;;;;;;5088903;28;20067;-65
2023/09/24 01:18:10;;;;;;;2.35;1.20;;;486.80;2380.80;;;;;;5086085;28;20120;-66
2023/09/24 01:20:36;;;;;;;3.13;1.38;;;486.80;2380.80;;;;;;5079881;28;20017;-63
2023/09/24 01:23:03;;;;;;;5.07;2.20;;;487.00;2380.80;;;;;;5085867;28;20444;-62
2023/09/24 01:25:34;;;;;;;4.13;3.20;;;486.80;2380.80;;;;;;5079808;28;20020;-60
2023/09/24 01:28:05;;;;;;;5.35;3.00;;;486.80;2380.80;;;;;;5089382;28;20037;-60
2023/09/24 01:30:32;;;;;;;9.10;5.97;;;486.70;2380.80;;;;;;5089709;28;20103;-62
2023/09/24 01:32:58;;;;;;;8.23;4.72;;;486.70;2380.80;;;;;;5089245;28;20025;-61
2023/09/24 01:35:32;;;;;;;4.25;2.88;;;486.70;2380.80;;;;;;5089541;28;20035;-64
2023/09/24 01:38:05;;;;;;;3.88;2.22;;;486.70;2380.80;;;;;;5089084;28;20105;-60
2023/09/24 01:40:38;;;;;;;2.53;1.42;;;486.60;2380.80;;;;;;5082855;28;20025;-61
2023/09/24 01:43:05;;;;;;;2.03;1.17;;;486.50;2380.80;;;;;;5060733;28;20060;-60
2023/09/24 01:45:34;;;;;;;2.70;1.05;;;486.50;2380.80;;;;;;5083959;28;20381;-63
2023/09/24 01:48:03;;;;;;;2.67;1.60;;;486.50;2380.80;;;;;;5089098;28;20074;-59
2023/09/24 01:50:32;;;;;;;2.25;1.30;;;486.40;2380.80;;;;;;5089300;28;20020;-66
2023/09/24 01:52:59;;;;;;;8.13;1.50;;;486.40;2380.80;;;;;;5089231;28;20115;-62
2023/09/24 01:55:25;;;;;;;2.42;1.30;;;486.40;2380.80;;;;;;5089048;28;20027;-60
2023/09/24 01:57:52;;;;;;;4.95;1.50;;;486.40;2380.80;;;;;;5088906;28;20032;-67
2023/09/24 02:00:23;;;;;;;2.95;1.50;;;486.50;2380.80;;;;;;5088755;28;20047;-60
2023/09/24 02:02:59;;;;;;;3.08;1.40;;;486.50;2380.80;;;;;;5089201;28;20473;-67
2023/09/24 02:05:36;;;;;;;4.03;1.10;;;486.40;2380.80;;;;;;5089133;28;20012;-68
2023/09/24 02:08:06;;;;;;;2.25;1.30;;;486.40;2380.80;;;;;;5088129;28;20023;-65
2023/09/24 02:10:40;;;;;;;2.30;1.15;;;461.70;2380.80;;;;;;5088580;28;20064;-69
2023/09/24 02:13:12;;;;;;;2.35;1.65;;;461.60;2380.80;;;;;;5073019;28;20099;-59
2023/09/24 02:15:43;;;;;;;2.60;1.30;;;461.50;2380.80;;;;;;5083135;28;20388;-59
2023/09/24 02:18:10;;;;;;;2.38;1.35;;;461.50;2380.80;;;;;;5088448;28;20044;-66
2023/09/24 02:20:38;;;;;;;4.20;1.42;;;461.40;2380.80;;;;;;5088995;28;20020;-67
2023/09/24 02:23:04;;;;;;;2.78;1.23;;;461.30;2380.80;;;;;;5088273;28;20082;-63
2023/09/24 02:25:32;;;;;;;1.80;1.27;;;461.30;2380.80;;;;;;5088847;28;20081;-67
2023/09/24 02:27:58;;;;;;;1.85;1.13;;;461.40;2380.80;;;;;;5075037;28;20028;-64
2023/09/24 02:30:29;;;;;;;2.83;1.40;;;461.40;2380.80;;;;;;5088538;28;20020;-62
2023/09/24 02:32:57;;;;;;;3.78;1.65;;;461.50;2380.80;;;;;;5088565;28;20031;-58
2023/09/24 02:35:23;;;;;;;4.05;2.63;;;461.50;2380.80;;;;;;5089044;28;20047;-60
2023/09/24 02:37:51;;;;;;;4.05;2.47;;;461.50;2380.80;;;;;;5088082;28;20501;-65
2023/09/24 02:40:23;;;;;;;4.65;2.22;;;461.50;2380.80;;;;;;5087944;28;20020;-59
2023/09/24 02:42:52;;;;;;;3.38;1.60;;;461.50;2380.80;;;;;;5088604;28;20032;-59
2023/09/24 02:45:18;;;;;;;2.03;1.35;;;461.60;2380.80;;;;;;5059561;28;20017;-65
2023/09/24 02:47:47;;;;;;;4.35;1.05;;;461.70;2380.80;;;;;;5077137;28;20040;-68
2023/09/24 02:50:13;;;;;;;4.68;1.35;;;461.70;2380.80;;;;;;5088015;28;20024;-60
2023/09/24 02:52:43;;;;;;;2.60;1.23;;;461.70;2380.80;;;;;;5088564;28;20106;-65
2023/09/24 02:55:12;;;;;;;1.70;1.05;;;461.70;2380.80;;;;;;5087708;28;20613;-60
2023/09/24 02:57:38;;;;;;;4.03;1.50;;;461.70;2380.80;;;;;;5088187;28;20127;-64
2023/09/24 03:00:17;;;;;;;1.83;1.00;;;461.70;2380.80;;;;;;5088063;28;20020;-65
2023/09/24 03:02:42;;;;;;;3.70;1.30;;;461.70;2380.80;;;;;;5075113;28;20097;-69
2023/09/24 03:05:11;;;;;;;1.70;0.95;;;461.70;2380.80;;;;;;5087891;28;20412;-61
2023/09/24 03:07:44;;;;;;;1.33;0.90;;;461.70;2380.80;;;;;;5088546;28;20382;-60
2023/09/24 03:10:10;;;;;;;;;;;461.70;2380.80;;;;;;5088515;28;20145;-60
2023/09/24 03:12:37;;;;;;;2.15;1.00;;;486.40;2380.80;;;;;;5088412;28;20582;-61
2023/09/24 03:15:03;;;;;;;2.45;0.98;;;486.40;2380.80;;;;;;5087658;28;20020;-66
2023/09/24 03:17:28;;;;;;;1.65;0.85;;;486.40;2380.80;;;;;;5088250;28;20043;-60
2023/09/24 03:19:54;;;;;;;1.55;0.82;;;461.70;2380.80;;;;;;5088584;28;20504;-64
2023/09/24 03:22:21;;;;;;;1.65;1.02;;;486.40;2380.80;;;;;;5070521;28;20024;-66
2023/09/24 03:24:50;;;;;;;2.88;1.00;;;486.40;2380.80;;;;;;5080697;28;20012;-65
2023/09/24 03:27:16;;;;;;;2.15;1.02;;;461.70;2380.80;;;;;;5091267;28;20063;-66
2023/09/24 03:29:45;;;;;;;2.03;1.08;;;461.70;2380.80;;;;;;5091922;28;20043;-61
2023/09/24 03:32:10;;;;;;;1.60;0.90;;;461.70;2380.80;;;;;;5091646;28;20535;-62
2023/09/24 03:34:37;;;;;;;2.33;1.38;;;461.70;2380.80;;;;;;5090503;28;20024;-67
2023/09/24 03:37:05;;;;;;;3.92;1.33;;;461.70;2380.80;;;;;;5091646;28;20049;-61
2023/09/24 03:39:31;;;;;;;2.97;1.00;;;461.70;2380.80;;;;;;5091296;28;20016;-66
2023/09/24 03:41:57;;;;;;;2.60;1.20;;;461.70;2380.80;;;;;;5091414;28;20061;-60
2023/09/24 03:44:23;;;;;;;6.32;1.20;;;461.70;2380.80;;;;;;5091632;28;20016;-68
2023/09/24 03:46:49;;;;;;;4.93;1.25;;;461.70;2380.80;;;;;;5090987;28;20028;-64
2023/09/24 03:49:14;;;;;;;2.00;1.10;;;461.70;2380.80;;;;;;5091485;28;20522;-63
2023/09/24 03:51:40;;;;;;;1.92;1.17;;;461.70;2380.80;;;;;;5091554;28;20016;-61
2023/09/24 03:54:06;;;;;;;1.85;1.38;;;486.40;2380.80;;;;;;5070374;28;20047;-64
2023/09/24 03:56:32;;;;;;;1.35;0.80;;;461.70;2380.80;;;;;;5085365;28;20084;-62
2023/09/24 03:58:57;;;;;;;1.77;1.02;;;461.70;2380.80;;;;;;5083584;28;20116;-65
2023/09/24 04:01:23;;;;;;;1.55;1.02;;;461.70;2380.80;;;;;;5085192;28;20020;-67
2023/09/24 04:03:49;;;;;;;1.58;1.25;;;486.40;2380.80;;;;;;5091137;28;20028;-66
2023/09/24 04:06:16;;;;;;;1.65;0.95;;;461.70;2380.80;;;;;;5090263;28;20073;-65
2023/09/24 04:08:42;;;;;;;3.55;1.38;;;461.70;2380.80;;;;;;5091253;28;20020;-59
2023/09/24 04:11:15;;;;;;;1.55;0.93;;;461.60;2380.80;;;;;;5090560;28;20032;-59
2023/09/24 04:13:41;;;;;;;2.92;1.05;;;461.60;2380.80;;;;;;5090889;28;20673;-65
2023/09/24 04:16:12;;;;;;;1.95;1.30;;;461.40;2380.80;;;;;;5090576;28;20178;-62
2023/09/24 04:18:38;;;;;;;2.33;1.20;;;461.30;2380.80;;;;;;5090960;28;20358;-60
2023/09/24 04:21:04;;;;;;;1.27;0.73;;;461.20;2380.80;;;;;;5090721;28;20127;-66
2023/09/24 04:23:30;;;;;;;2.78;1.30;;;461.20;2380.80;;;;;;5091032;28;20093;-63
2023/09/24 04:25:55;;;;;;;2.10;1.10;;;461.20;2380.80;;;;;;5090409;28;20417;-67
2023/09/24 04:28:21;;;;;;;1.73;1.10;;;461.20;2380.80;;;;;;5090921;28;20034;-64
2023/09/24 04:30:47;;;;;;;3.03;1.10;;;461.30;2380.80;;;;;;5075042;28;20024;-66
2023/09/24 04:33:13;;;;;;;1.77;1.05;;;461.10;2380.80;;;;;;5077531;28;20020;-61
2023/09/24 04:35:38;;;;;;;2.70;1.38;;;461.20;2380.80;;;;;;5089629;28;20446;-64
2023/09/24 04:38:07;;;;;;;2.53;1.15;;;461.10;2380.80;;;;;;5090691;28;20063;-62
2023/09/24 04:40:34;;;;;;;2.58;1.23;;;461.10;2380.80;;;;;;5090086;28;20020;-62
2023/09/24 04:43:00;;;;;;;1.45;0.98;;;461.30;2380.80;;;;;;5090653;28;20106;-65
2023/09/24 04:45:25;;;;;;;2.25;1.13;;;461.30;2380.80;;;;;;5090142;28;20059;-65
2023/09/24 04:47:51;;;;;;;1.73;1.08;;;461.30;2380.80;;;;;;5090080;28;20067;-64
2023/09/24 04:50:17;;;;;;;2.03;1.23;;;461.20;2380.80;;;;;;5090442;28;20044;-64
2023/09/24 04:52:46;;;;;;;2.60;1.02;;;461.10;2380.80;;;;;;5090317;28;20044;-64
2023/09/24 04:55:16;;;;;;;2.60;1.00;;;461.00;2380.80;;;;;;5090257;28;20371;-66
2023/09/24 04:57:45;;;;;;;1.85;1.10;;;460.90;2380.80;;;;;;5078506;28;20068;-60
2023/09/24 05:00:13;;;;;;;2.88;1.30;;;460.90;2380.80;;;;;;5088234;28;20069;-61
2023/09/24 05:02:38;;;;;;;1.95;1.10;;;460.90;2380.80;;;;;;5089741;28;20032;-63
2023/09/24 05:05:05;;;;;;;2.65;1.05;;;460.80;2380.80;;;;;;5089551;28;20431;-63
2023/09/24 05:07:30;;;;;;;2.28;1.30;;;460.90;2380.80;;;;;;5081486;28;20025;-62
2023/09/24 05:09:56;;;;;;;2.95;1.20;;;436.10;2355.20;;;;;;5071417;28;20027;-59
2023/09/24 05:12:23;;;;;;;2.70;0.90;;;436.00;2355.20;;;;;;5080168;28;20028;-65
2023/09/24 05:14:48;;;;;;;2.65;1.35;;;435.90;2355.20;;;;;;5087793;28;20105;-62
2023/09/24 05:17:14;;;;;;;1.63;1.10;;;435.90;2355.20;;;;;;5089551;28;20080;-60
2023/09/24 05:19:40;;;;;;;2.65;1.48;;;436.00;2355.20;;;;;;5089104;28;20035;-64
2023/09/24 05:22:07;;;;;;;1.52;1.00;;;460.80;2380.80;;;;;;5090098;28;20039;-66
2023/09/24 05:24:34;;;;;;;2.28;0.93;;;460.80;2380.80;;;;;;5089521;28;20108;-61
2023/09/24 05:27:00;;;;;;;1.90;1.02;;;460.90;2380.80;;;;;;5089539;28;20035;-63
2023/09/24 05:29:25;;;;;;;1.63;0.77;;;461.00;2380.80;;;;;;5089640;28;20020;-66
2023/09/24 05:31:51;;;;;;;2.15;1.10;;;461.10;2380.80;;;;;;5089597;28;20063;-65
2023/09/24 05:34:17;;;;;;;1.88;1.10;;;461.20;2380.80;;;;;;5088581;28;20529;-65
2023/09/24 05:36:43;;;;;;;1.50;0.95;;;461.30;2380.80;;;;;;5089612;28;20024;-63
2023/09/24 05:39:09;;;;;;;2.10;0.98;;;461.40;2380.80;;;;;;5088882;28;20442;-65
2023/09/24 05:41:35;;;;;;;2.22;1.23;;;461.40;2380.80;;;;;;5074937;28;20025;-64
2023/09/24 05:44:04;;;;;;;3.65;1.23;;;461.40;2380.80;;;;;;5080308;28;20107;-59
2023/09/24 05:46:30;;;;;;;1.45;1.00;;;461.50;2380.80;;;;;;5089091;28;20016;-60
2023/09/24 05:48:58;;;;;;;1.98;1.42;;;461.60;2380.80;;;;;;5088859;28;20084;-64
2023/09/24 05:51:24;;;;;;;1.63;1.05;;;461.60;2380.80;;;;;;5089032;28;20051;-67
2023/09/24 05:53:51;;;;;;;4.00;1.52;;;461.70;2380.80;;;;;;5089021;28;20032;-60
2023/09/24 05:56:17;;;;;;;1.70;0.93;;;486.40;2380.80;;;;;;5089329;28;20537;-64
2023/09/24 05:58:43;;;;;;;2.63;1.38;;;461.70;2380.80;;;;;;5088651;28;20063;-63
2023/09/24 06:01:16;;;;;;;2.00;1.15;;;461.50;2380.80;;;;;;5088814;28;20107;-61
2023/09/24 06:03:42;;;;;;;2.90;1.70;;;461.40;2380.80;;;;;;5088922;28;20024;-66
2023/09/24 06:06:12;;;;;;;3.15;1.60;;;461.40;2380.80;;;;;;5088564;28;20072;-61
2023/09/24 06:08:38;;;;;;;3.90;1.17;;;461.40;2380.80;;;;;;5063503;28;20020;-59
2023/09/24 06:11:04;;;;;;;2.05;1.20;;;461.40;2380.80;;;;;;5084535;28;20043;-59
2023/09/24 06:13:32;;;;;;;1.50;1.00;;;461.30;2380.80;;;;;;5064391;28;20059;-65
2023/09/24 06:16:02;;;;;;;2.95;1.00;;;461.20;2380.80;;;;;;5075621;28;20048;-62
2023/09/24 06:18:28;;;;;;;1.92;0.98;;;461.30;2380.80;;;;;;5088805;28;20199;-61
2023/09/24 06:20:54;;;;;;;3.00;1.50;;;461.30;2380.80;;;;;;5089046;28;20063;-62
2023/09/24 06:23:20;;;;;;;2.20;1.20;;;461.20;2380.80;;;;;;5088615;28;20039;-60
2023/09/24 06:25:53;;;;;;;3.17;1.50;;;461.20;2380.80;;;;;;5088533;28;20020;-65
2023/09/24 06:28:19;;;;;;;2.47;1.38;;;461.20;2380.80;;;;;;5088533;28;20449;-59
2023/09/24 06:30:45;;;;;;;2.40;1.20;;;461.30;2380.80;;;;;;5088358;28;20062;-64
2023/09/24 06:33:11;;;;;;;3.58;1.75;;;461.40;2380.80;;;;;;5088902;28;20089;-66
2023/09/24 06:35:37;;;;;;;4.57;2.17;;;461.60;2380.80;;;;;;5069541;28;20378;-64
2023/09/24 06:38:03;;;;;;;3.00;1.50;;;461.70;2380.80;;;;;;5074610;28;20036;-63
2023/09/24 06:40:30;;;;;;;3.03;1.23;;;461.70;2380.80;;;;;;5075386;28;20016;-63
2023/09/24 06:42:56;;;;;;;6.10;1.70;;;486.40;2380.80;;;;;;5072430;28;20028;-63
2023/09/24 06:45:22;;;;;;;2.70;1.35;;;486.40;2380.80;;;;;;5065380;28;20032;-64
2023/09/24 06:47:47;;;;;;;2.90;1.60;;;486.50;2380.80;;;;;;5069283;28;20032;-61
2023/09/24 06:50:13;;;;;;;2.03;1.05;;;461.70;2380.80;;;;;;5088336;28;20032;-58
2023/09/24 06:52:39;;;;;;;3.20;1.38;;;486.40;2380.80;;;;;;5087982;28;20578;-64
2023/09/24 06:55:09;;;;;;;4.05;1.50;;;486.40;2380.80;;;;;;5082482;28;20070;-66
2023/09/24 06:57:36;;;;;;;3.17;1.10;;;486.50;2380.80;;;;;;5088564;28;20446;-63
2023/09/24 07:00:04;;;;;;;3.35;1.40;;;486.80;2380.80;;;;;;5092196;28;20021;-64
2023/09/24 07:02:30;;;;;;;3.60;1.90;;;486.90;2380.80;;;;;;5091664;28;20374;-62
2023/09/24 07:04:56;;;;;;;3.17;1.70;;;487.00;2380.80;;;;;;5092364;28;20028;-66
2023/09/24 07:07:22;;;;;;;3.08;2.20;;;487.20;2380.80;;;;;;5090990;28;20056;-64
2023/09/24 07:09:48;;;;;;;3.90;1.63;;;487.30;2380.80;;;;;;5092198;28;20016;-59
2023/09/24 07:12:16;;;;;;;3.13;1.80;;;487.20;2380.80;;;;;;5092376;28;20028;-63
2023/09/24 07:14:42;;;;;;;5.43;2.20;;;487.30;2380.80;;;;;;5092123;28;20004;-65
2023/09/24 07:17:08;;;;;;;3.38;2.15;;;512.10;2380.80;;;;;;5080300;28;20048;-61
2023/09/24 07:19:34;;;;;;;4.28;2.10;;;512.50;2380.80;;;;;;5082340;28;20382;-61
2023/09/24 07:22:00;;;;;;;5.15;2.13;;;512.80;2380.80;;;;;;5091920;28;20074;-63
2023/09/24 07:24:25;;;;;;;5.03;1.77;;;537.90;2406.40;;;;;;5091204;28;20562;-59
2023/09/24 07:26:51;;;;;;;5.85;2.45;;;538.00;2406.40;;;;;;5091721;28;20028;-62
2023/09/24 07:29:18;;;;;;;3.33;1.98;;;538.10;2406.40;;;;;;5091870;28;20157;-61
2023/09/24 07:31:44;;;;;;;3.88;2.10;;;538.00;2406.40;;;;;;5091937;28;20016;-65
2023/09/24 07:34:10;;;;;;;8.30;1.85;;;537.80;2406.40;;;;;;5091529;28;20024;-66
2023/09/24 07:36:36;;;;;;;4.30;1.38;;;512.90;2380.80;;;;;;5088621;28;20024;-67
2023/09/24 07:39:03;;;;;;;2.95;1.90;;;512.90;2380.80;;;;;;5090189;28;20095;-63
2023/09/24 07:41:29;;;;;;;3.50;1.90;;;512.60;2380.80;;;;;;5090336;28;20024;-64
2023/09/24 07:43:54;;;;;;;4.63;1.95;;;512.50;2380.80;;;;;;5090108;28;20024;-66
2023/09/24 07:46:20;;;;;;;4.57;2.00;;;512.50;2380.80;;;;;;5090112;28;20032;-59
2023/09/24 07:48:48;;;;;;;5.40;1.75;;;512.60;2380.80;;;;;;5082046;28;20086;-60
2023/09/24 07:51:18;;;;;;;3.30;1.88;;;512.70;2380.80;;;;;;5084450;28;20024;-59
2023/09/24 07:53:47;;;;;;;3.60;1.55;;;512.80;2380.80;;;;;;5090036;28;20024;-62
2023/09/24 07:56:14;;;;;;;2.90;1.60;;;512.80;2380.80;;;;;;5072887;28;20486;-59
2023/09/24 07:58:41;;;;;;;5.43;1.55;;;512.90;2380.80;;;;;;5089794;28;20489;-59
2023/09/24 08:01:08;;;;;;;4.07;1.98;;;512.90;2380.80;;;;;;5089538;28;20412;-61
2023/09/24 08:03:35;;;;;;;3.90;2.28;;;512.90;2380.80;;;;;;5089731;28;20111;-63
2023/09/24 08:06:02;;;;;;;3.63;1.85;;;537.60;2406.40;;;;;;5090267;28;20026;-59
2023/09/24 08:08:29;;;;;;;2.78;1.80;;;537.60;2406.40;;;;;;5088488;28;20024;-59
2023/09/24 08:10:57;;;;;;;2.47;1.50;;;537.60;2406.40;;;;;;5075460;28;20027;-60
2023/09/24 08:13:23;;;;;;;2.65;1.80;;;537.60;2406.40;;;;;;5085757;28;20041;-60
2023/09/24 08:15:49;;;;;;;3.25;1.70;;;512.90;2380.80;;;;;;5087320;28;20055;-60
2023/09/24 08:18:16;;;;;;;3.90;2.00;;;512.90;2380.80;;;;;;5074467;28;20036;-60
2023/09/24 08:20:42;;;;;;;5.35;1.80;;;512.90;2380.80;;;;;;5076335;28;20031;-61
2023/09/24 08:23:08;;;;;;;3.95;1.95;;;512.90;2380.80;;;;;;5082091;28;20116;-59
2023/09/24 08:25:35;;;;;;;5.07;1.80;;;512.70;2380.80;;;;;;5082312;28;20017;-58
2023/09/24 08:28:02;;;;;;;5.40;1.98;;;512.80;2380.80;;;;;;5076889;28;20355;-63
2023/09/24 08:30:30;;;;;;;3.30;1.60;;;512.90;2380.80;;;;;;5064227;28;20044;-59
2023/09/24 08:32:56;;;;;;;2.90;1.77;;;512.80;2380.80;;;;;;5074573;28;20034;-61
2023/09/24 08:35:23;;;;;;;4.55;1.90;;;512.90;2380.80;;;;;;5088923;28;20032;-62
2023/09/24 08:37:49;;;;;;;4.45;1.90;;;537.60;2406.40;;;;;;5088070;28;20063;-64
2023/09/24 08:40:16;;;;;;;3.72;1.90;;;537.60;2406.40;;;;;;5089312;28;20021;-60
2023/09/24 08:42:45;;;;;;;4.72;1.95;;;538.00;2406.40;;;;;;5075187;28;20020;-58
2023/09/24 08:45:14;;;;;;;3.67;1.58;;;538.40;2406.40;;;;;;5068124;28;20031;-58
2023/09/24 08:47:44;;;;;;;2.33;1.42;;;538.50;2406.40;;;;;;5068560;28;20024;-59
2023/09/24 08:50:10;;;;;;;3.45;2.03;;;538.50;2406.40;;;;;;5069843;28;20086;-59
2023/09/24 08:52:37;;;;;;;3.80;1.77;;;538.40;2406.40;;;;;;5070449;28;20020;-58
2023/09/24 08:55:09;;;;;;;3.80;2.03;;;538.50;2406.40;;;;;;5075330;28;20036;-59
2023/09/24 08:57:35;;;;;;;5.03;2.03;;;563.20;2432.00;;;;;;5069953;28;20064;-61
2023/09/24 09:00:04;;;;;;;3.60;1.80;;;538.40;2406.40;;;;;;5069871;28;20021;-59
2023/09/24 09:02:30;;;;;;;5.97;1.90;;;538.00;2406.40;;;;;;5068576;28;20039;-58
2023/09/24 09:04:56;;;;;;;5.20;1.95;;;538.00;2406.40;;;;;;5083195;28;20385;-59
2023/09/24 09:07:21;;;;;;;4.60;1.80;;;538.30;2406.40;;;;;;5089230;28;20024;-60
2023/09/24 09:09:56;;;;;;;7.13;1.95;;;538.30;2406.40;;;;;;5089920;28;20020;-64
2023/09/24 09:12:23;;;;;;;9.88;2.42;;;538.40;2406.40;;;;;;5064436;28;20039;-59
2023/09/24 09:14:49;;;;;;;5.70;2.40;;;538.50;2406.40;;;;;;5089477;28;20028;-61
2023/09/24 09:17:15;;;;;;;5.45;2.20;;;538.50;2406.40;;;;;;5088631;28;20044;-62
2023/09/24 09:19:54;;;;;;;7.78;2.30;;;538.40;2406.40;;;;;;5085295;28;20066;-60
2023/09/24 09:22:24;;;;;;;3.33;2.00;;;538.20;2406.40;;;;;;5069744;28;20063;-60
2023/09/24 09:25:07;;;;;;;4.32;1.95;;;538.00;2406.40;;;;;;5069170;28;20050;-59
2023/09/24 09:27:39;;;;;;;3.47;1.80;;;537.90;2406.40;;;;;;5074571;28;20426;-60
2023/09/24 09:30:16;;;;;;;4.20;1.93;;;537.60;2406.40;;;;;;5072945;28;20032;-62
2023/09/24 09:32:46;;;;;;;5.00;2.60;;;512.90;2380.80;;;;;;5070103;28;20478;-61
2023/09/24 09:35:17;;;;;;;7.20;3.78;;;512.90;2380.80;;;;;;5076747;28;20111;-58
2023/09/24 09:37:43;;;;;;;4.05;2.15;;;512.90;2380.80;;;;;;5087598;28;20460;-62
2023/09/24 09:40:10;;;;;;;6.40;2.63;;;512.90;2380.80;;;;;;5086888;28;20074;-63
2023/09/24 09:42:38;;;;;;;7.10;2.53;;;512.80;2380.80;;;;;;5075913;28;20020;-63
2023/09/24 09:45:08;;;;;;;3.20;2.03;;;512.70;2380.80;;;;;;5088550;28;20019;-59
2023/09/24 09:47:41;;;;;;;4.25;2.33;;;512.80;2380.80;;;;;;5089145;28;20060;-61
2023/09/24 09:50:09;;;;;;;3.20;2.13;;;512.90;2380.80;;;;;;5088993;28;20028;-65
2023/09/24 09:52:43;;;;;;;3.83;2.20;;;512.90;2380.80;;;;;;5088884;28;20044;-61
2023/09/24 09:55:09;;;;;;;3.35;1.83;;;537.70;2406.40;;;;;;5071885;28;20112;-59
2023/09/24 09:57:35;;;;;;;3.63;2.20;;;537.70;2406.40;;;;;;5077876;28;20120;-59
2023/09/24 10:00:05;;;;;;;3.25;1.80;;;538.00;2406.40;;;;;;5077743;28;20029;-64
2023/09/24 10:02:32;;;;;;;3.78;2.00;;;538.10;2406.40;;;;;;5068582;28;20020;-61
2023/09/24 10:05:00;;;;;;;4.65;2.13;;;538.50;2406.40;;;;;;5062050;28;20111;-59
2023/09/24 10:07:26;;;;;;;4.30;1.95;;;563.30;2432.00;;;;;;5062250;28;20425;-59
2023/09/24 10:09:52;;;;;;;2.88;1.90;;;563.60;2432.00;;;;;;5063095;28;20043;-59
2023/09/24 10:12:37;;;;;;;3.88;1.88;;;563.80;2432.00;;;;;;5070239;28;20033;-59
2023/09/24 10:15:26;;;;;;;4.03;1.88;;;563.90;2432.00;;;;;;5063018;28;20024;-62
2023/09/24 10:18:09;;;;;;;3.45;2.20;;;563.50;2432.00;;;;;;5059539;28;20131;-60
2023/09/24 10:20:50;;;;;;;3.47;2.05;;;563.50;2432.00;;;;;;5061551;28;20107;-60
2023/09/24 10:23:32;;;;;;;4.13;2.10;;;563.60;2432.00;;;;;;5071258;28;20104;-60
2023/09/24 10:26:00;;;;;;;4.38;2.17;;;563.90;2432.00;;;;;;5070044;28;20025;-59
2023/09/24 10:28:51;;;;;;;5.50;2.65;;;564.10;2432.00;;;;;;5065463;28;20039;-59
2023/09/24 10:31:21;;;;;;;5.15;2.63;;;589.10;2432.00;;;;;;5066359;28;20036;-59
2023/09/24 10:33:58;;;;;;;6.55;2.85;;;589.30;2432.00;;;;;;5063679;28;20035;-59
2023/09/24 10:36:33;;;;;;;5.38;2.75;;;589.30;2432.00;;;;;;5060992;28;20029;-61
2023/09/24 10:39:10;;;;;;;13.30;10.02;;;589.10;2432.00;;;;;;5069221;28;20051;-60
2023/09/24 10:41:56;;;;;;;5.82;2.97;;;588.90;2432.00;;;;;;5061760;28;20035;-59
2023/09/24 10:44:27;;;;;;;5.38;3.78;;;589.00;2432.00;;;;;;5056304;28;20664;-59
2023/09/24 10:46:53;;;;;;;4.57;3.47;;;589.30;2432.00;;;;;;5065054;28;20498;-60
2023/09/24 10:49:27;;;;;;;7.47;3.63;;;589.50;2432.00;;;;;;5070930;28;20044;-58
2023/09/24 10:52:01;;;;;;;4.75;3.97;;;589.50;2432.00;;;;;;5067302;28;20081;-59
2023/09/24 10:54:29;;;;;;;5.88;3.70;;;589.60;2432.00;;;;;;5071057;28;20514;-58
2023/09/24 10:56:54;;;;;;;5.97;3.60;;;614.50;2432.00;;;;;;5062555;28;20071;-63
2023/09/24 10:59:33;;;;;;;6.10;3.47;;;614.80;2432.00;;;;;;5063839;28;20706;-63
2023/09/24 11:02:14;;;;;;;9.55;8.32;;;614.50;2432.00;;;;;;5071214;28;20037;-59
2023/09/24 11:04:40;;;;;;;19.13;13.93;;;614.40;2432.00;;;;;;5065782;28;20028;-60
2023/09/24 11:07:09;;;;;;;9.98;5.72;;;589.60;2432.00;;;;;;5066293;28;20029;-61
2023/09/24 11:09:35;;;;;;;15.20;7.55;;;614.40;2432.00;;;;;;5072698;28;20037;-60
2023/09/24 11:12:07;;;;;;;7.18;3.97;;;614.40;2432.00;;;;;;5088473;28;20039;-61
2023/09/24 11:14:33;;;;;;;4.97;3.08;;;589.60;2432.00;;;;;;5088178;28;20040;-61
2023/09/24 11:16:59;;;;;;;5.80;4.25;;;614.50;2432.00;;;;;;5073399;28;20045;-62
2023/09/24 11:19:47;;;;;;;6.95;4.60;;;589.70;2432.00;;;;;;5067147;28;20116;-62
2023/09/24 11:22:21;;;;;;;5.40;4.25;;;589.60;2432.00;;;;;;5064855;28;20052;-61
2023/09/24 11:25:12;;;;;;;4.93;4.43;;;589.50;2432.00;;;;;;5067500;28;20100;-61
2023/09/24 11:27:49;;;;;;;4.88;4.03;;;589.40;2432.00;;;;;;5068495;28;20090;-61
2023/09/24 11:30:17;;;;;;;6.93;3.78;;;589.20;2432.00;;;;;;5088100;28;20471;-61
2023/09/24 11:32:44;;;;;;;7.72;4.22;;;589.40;2432.00;;;;;;5088026;28;20081;-61
2023/09/24 11:35:10;;;;;;;7.30;4.10;;;589.30;2432.00;;;;;;5088241;28;20031;-61
2023/09/24 11:38:01;;;;;;;5.68;4.40;;;589.50;2432.00;;;;;;5080842;28;20131;-61
2023/09/24 11:40:38;;;;;;;5.20;4.18;;;589.70;2432.00;;;;;;5072260;28;20029;-61
2023/09/24 11:43:11;;;;;;;6.68;3.40;;;615.00;2432.00;;;;;;5091767;28;20028;-61
2023/09/24 11:45:55;;;;;;;5.88;3.75;;;615.30;2380.80;;;;;;5088849;28;20072;-61
2023/09/24 11:48:21;;;;;;;5.00;3.05;;;640.10;2380.80;;;;;;5079123;28;20036;-62
2023/09/24 11:50:57;;;;;;;4.32;3.22;;;640.00;2329.60;;;;;;5066227;28;20533;-61
2023/09/24 11:53:25;;;;;;;5.57;2.92;;;615.30;2304.00;;;;;;5075311;28;20109;-60
2023/09/24 11:55:56;;;;;;;4.45;3.25;;;640.20;2304.00;;;;;;5073732;28;20040;-61
2023/09/24 11:58:26;;;;;;;3.83;3.25;;;640.20;2304.00;;;;;;5071477;28;20363;-61
2023/09/24 12:00:56;;;;;;;3.80;2.80;;;640.60;2278.40;;;;;;5057293;28;20033;-61
2023/09/24 12:03:22;;;;;;;5.30;3.90;;;640.60;2252.80;;;;;;5069940;28;20110;-61
2023/09/24 12:05:48;;;;;;;5.18;3.78;;;640.40;2278.40;;;;;;5083861;28;20230;-63
2023/09/24 12:08:14;;;;;;;5.03;3.92;;;640.40;2278.40;;;;;;5075789;28;20975;-61
2023/09/24 12:10:41;;;;;;;6.03;3.88;;;640.00;2252.80;;;;;;5061366;28;20097;-61
2023/09/24 12:13:08;;;;;;;8.43;3.92;;;615.30;2304.00;;;;;;5074308;28;20032;-61
2023/09/24 12:15:35;;;;;;;31.05;27.63;;;615.10;2278.40;;;;;;5061469;28;20028;-60
2023/09/24 12:18:04;;;;;;;8.43;4.88;;;615.10;2304.00;;;;;;5061276;28;20118;-61
2023/09/24 12:20:31;;;;;;;4.47;3.35;;;615.30;2304.00;;;;;;5064544;28;20076;-61
2023/09/24 12:22:59;;;;;;;4.85;4.05;;;640.00;2278.40;;;;;;5076122;28;20039;-61
2023/09/24 12:25:24;;;;;;;5.05;4.28;;;615.30;2252.80;;;;;;5059095;28;20343;-61